Time;durP1;ratioP1;P1;durP2;ratioP2;P2;SDS_P1;SDS_P2;PMS_P1;PMS_P2;Temp;Humidity;BMP_temperature;BMP_pressure;BME280_temperature;BME280_humidity;BME280_pressure;Samples;Min_cycle;Max_cycle;Signal;HPM_P1;HPM_P2
2023/12/14 00:00:01;;;;;;;2.45;1.13;;;12.00;51.40;;;;;;344226;28;2269;-56
2023/12/14 00:00:13;;;;;;;2.70;1.20;;;12.00;51.40;;;;;;344248;28;1887;-57
2023/12/14 00:00:24;;;;;;;3.17;1.27;;;12.00;51.20;;;;;;344390;28;920;-57
2023/12/14 00:00:34;;;;;;;2.92;1.20;;;12.00;51.10;;;;;;344317;28;1579;-57
2023/12/14 00:00:45;;;;;;;2.47;1.13;;;12.00;51.00;;;;;;344345;28;1080;-56
2023/12/14 00:00:56;;;;;;;2.30;1.00;;;12.00;50.90;;;;;;344270;28;1068;-57
2023/12/14 00:01:10;;;;;;;3.17;1.00;;;12.00;50.80;;;;;;344330;28;949;-57
2023/12/14 00:01:20;;;;;;;3.50;1.10;;;12.00;50.70;;;;;;344299;28;2155;-57
2023/12/14 00:01:31;;;;;;;3.28;1.13;;;12.00;50.70;;;;;;344268;28;899;-57
2023/12/14 00:01:42;;;;;;;2.83;1.20;;;12.00;50.80;;;;;;344183;28;1297;-57
2023/12/14 00:01:53;;;;;;;3.38;1.48;;;12.00;50.80;;;;;;344323;28;1071;-57
2023/12/14 00:02:03;;;;;;;4.28;1.70;;;12.00;50.90;;;;;;344239;28;1024;-56
2023/12/14 00:02:14;;;;;;;4.20;1.63;;;12.00;51.00;;;;;;344240;28;924;-57
2023/12/14 00:02:25;;;;;;;4.65;1.45;;;12.00;51.00;;;;;;344381;28;868;-57
2023/12/14 00:02:36;;;;;;;4.07;1.30;;;12.00;50.90;;;;;;344318;28;1067;-56
2023/12/14 00:02:46;;;;;;;3.75;1.33;;;12.00;50.80;;;;;;344317;28;1079;-57
2023/12/14 00:02:58;;;;;;;3.23;1.30;;;12.00;50.70;;;;;;344245;28;1068;-57
2023/12/14 00:03:08;;;;;;;3.10;1.20;;;12.00;50.80;;;;;;344341;28;996;-57
2023/12/14 00:03:19;;;;;;;2.88;1.02;;;12.00;50.80;;;;;;344362;28;787;-57
2023/12/14 00:03:30;;;;;;;1.77;0.80;;;12.00;50.80;;;;;;344215;28;1021;-56
2023/12/14 00:03:42;;;;;;;2.15;0.95;;;12.00;50.80;;;;;;344232;28;1093;-56
2023/12/14 00:03:52;;;;;;;2.17;1.00;;;12.00;50.80;;;;;;344336;28;972;-57
2023/12/14 00:04:04;;;;;;;2.58;1.10;;;12.00;51.00;;;;;;344321;28;1422;-57
2023/12/14 00:04:15;;;;;;;2.33;0.98;;;12.00;50.90;;;;;;344227;28;1080;-58
2023/12/14 00:04:26;;;;;;;2.00;0.97;;;12.00;50.90;;;;;;344383;28;1023;-56
2023/12/14 00:04:36;;;;;;;2.50;0.80;;;12.00;50.80;;;;;;344323;28;988;-57
2023/12/14 00:04:48;;;;;;;2.40;0.70;;;12.00;50.70;;;;;;344156;28;1472;-56
2023/12/14 00:04:58;;;;;;;2.55;0.80;;;12.10;50.70;;;;;;344284;28;1087;-57
2023/12/14 00:05:09;;;;;;;2.42;1.02;;;12.00;50.60;;;;;;344291;28;1012;-56
2023/12/14 00:05:20;;;;;;;2.47;1.08;;;12.00;50.60;;;;;;344195;28;1914;-57
2023/12/14 00:05:31;;;;;;;2.20;1.00;;;12.00;50.60;;;;;;344320;28;980;-57
2023/12/14 00:05:41;;;;;;;1.60;0.80;;;12.00;50.60;;;;;;344340;28;1114;-56
2023/12/14 00:05:52;;;;;;;1.98;0.82;;;12.00;50.60;;;;;;344289;28;964;-56
2023/12/14 00:06:03;;;;;;;2.58;0.80;;;12.00;50.80;;;;;;344315;28;818;-57
2023/12/14 00:06:14;;;;;;;2.70;0.90;;;12.00;50.80;;;;;;344299;28;993;-56
2023/12/14 00:06:25;;;;;;;3.15;1.00;;;12.00;50.60;;;;;;344225;28;1505;-56
2023/12/14 00:06:36;;;;;;;3.03;0.98;;;12.00;50.60;;;;;;344364;28;810;-57
2023/12/14 00:06:46;;;;;;;3.28;0.98;;;12.00;50.50;;;;;;344291;28;1040;-56
2023/12/14 00:06:57;;;;;;;3.10;0.93;;;12.00;50.50;;;;;;344199;28;983;-56
2023/12/14 00:07:08;;;;;;;2.60;0.93;;;12.00;50.40;;;;;;344409;28;818;-54
2023/12/14 00:07:19;;;;;;;2.13;0.90;;;12.00;50.50;;;;;;344192;28;1016;-56
2023/12/14 00:07:30;;;;;;;1.63;0.90;;;12.00;50.50;;;;;;344254;28;1046;-56
2023/12/14 00:07:40;;;;;;;1.67;0.90;;;12.00;50.70;;;;;;344339;28;877;-56
2023/12/14 00:07:51;;;;;;;2.00;0.90;;;12.00;50.60;;;;;;344290;28;1013;-56
2023/12/14 00:08:02;;;;;;;2.75;0.90;;;12.10;50.60;;;;;;344185;28;1116;-56
2023/12/14 00:08:13;;;;;;;3.07;0.90;;;12.00;50.60;;;;;;344324;28;1019;-58
2023/12/14 00:08:23;;;;;;;3.45;0.98;;;12.10;50.60;;;;;;344244;28;1139;-56
2023/12/14 00:08:34;;;;;;;3.05;1.00;;;12.10;50.50;;;;;;344192;28;2575;-56
2023/12/14 00:08:45;;;;;;;2.75;1.05;;;12.00;50.60;;;;;;344292;28;977;-55
2023/12/14 00:08:56;;;;;;;2.35;1.00;;;12.10;50.70;;;;;;344267;28;996;-56
2023/12/14 00:09:08;;;;;;;2.10;1.00;;;12.10;50.80;;;;;;344275;28;1030;-56
2023/12/14 00:09:19;;;;;;;2.08;0.85;;;12.00;50.70;;;;;;344273;28;1584;-56
2023/12/14 00:09:30;;;;;;;3.55;0.80;;;12.10;50.50;;;;;;344339;28;915;-56
2023/12/14 00:09:41;;;;;;;4.47;0.95;;;12.00;50.50;;;;;;344359;28;864;-56
2023/12/14 00:09:52;;;;;;;4.10;1.10;;;12.10;50.40;;;;;;344311;28;1746;-56
2023/12/14 00:10:04;;;;;;;3.88;1.10;;;12.00;50.30;;;;;;344294;28;1024;-57
2023/12/14 00:10:17;;;;;;;3.10;1.02;;;12.00;50.20;;;;;;344285;28;2579;-56
2023/12/14 00:10:28;;;;;;;2.85;0.90;;;12.00;50.20;;;;;;344343;28;976;-56
2023/12/14 00:10:39;;;;;;;3.20;0.90;;;12.10;50.20;;;;;;344364;28;818;-57
2023/12/14 00:10:50;;;;;;;3.15;0.98;;;12.10;50.30;;;;;;344188;28;1917;-55
2023/12/14 00:11:08;;;;;;;2.60;0.90;;;12.00;50.30;;;;;;344316;28;1020;-57
2023/12/14 00:11:18;;;;;;;2.38;0.95;;;12.00;50.30;;;;;;344318;28;925;-56
2023/12/14 00:11:29;;;;;;;2.40;0.95;;;12.00;50.20;;;;;;344289;28;1147;-57
2023/12/14 00:11:40;;;;;;;2.88;0.95;;;12.10;50.30;;;;;;344215;28;1063;-57
2023/12/14 00:11:51;;;;;;;2.65;0.90;;;12.00;50.40;;;;;;344290;28;1098;-55
2023/12/14 00:12:02;;;;;;;2.72;0.98;;;12.00;50.30;;;;;;344333;28;976;-56
2023/12/14 00:12:13;;;;;;;3.60;1.10;;;12.10;50.30;;;;;;344273;28;921;-56
2023/12/14 00:12:24;;;;;;;4.95;1.20;;;12.00;50.40;;;;;;344353;28;884;-57
2023/12/14 00:12:35;;;;;;;4.57;1.10;;;12.00;50.40;;;;;;344176;28;1100;-56
2023/12/14 00:12:45;;;;;;;3.17;0.80;;;12.00;50.50;;;;;;344276;28;1154;-56
2023/12/14 00:12:56;;;;;;;1.92;0.70;;;12.00;50.50;;;;;;344285;28;993;-56
2023/12/14 00:13:07;;;;;;;2.63;0.80;;;12.00;50.60;;;;;;344361;28;826;-56
2023/12/14 00:13:18;;;;;;;2.75;0.90;;;12.00;50.50;;;;;;344346;28;1079;-57
2023/12/14 00:13:29;;;;;;;2.70;0.90;;;12.00;50.60;;;;;;344184;28;1061;-57
2023/12/14 00:13:40;;;;;;;2.17;0.80;;;12.00;50.70;;;;;;344320;28;826;-56
2023/12/14 00:13:50;;;;;;;2.70;0.82;;;12.00;50.50;;;;;;344324;28;1036;-56
2023/12/14 00:14:01;;;;;;;2.90;0.90;;;12.00;50.60;;;;;;344258;28;1075;-56
2023/12/14 00:14:12;;;;;;;3.50;0.95;;;12.00;50.70;;;;;;344302;28;818;-56
2023/12/14 00:14:23;;;;;;;4.07;1.05;;;12.00;50.60;;;;;;344162;28;954;-56
2023/12/14 00:14:33;;;;;;;4.60;1.10;;;12.00;50.60;;;;;;344323;28;1052;-57
2023/12/14 00:14:44;;;;;;;4.35;1.00;;;12.00;50.50;;;;;;344311;28;1079;-57
2023/12/14 00:14:55;;;;;;;3.53;0.90;;;12.00;50.60;;;;;;344193;28;1028;-57
2023/12/14 00:15:06;;;;;;;3.40;0.82;;;12.00;50.60;;;;;;344330;28;774;-57
2023/12/14 00:15:17;;;;;;;3.63;0.90;;;12.00;50.50;;;;;;344254;28;1106;-56
2023/12/14 00:15:28;;;;;;;3.45;0.98;;;12.00;50.50;;;;;;344231;28;1659;-56
2023/12/14 00:15:39;;;;;;;4.13;1.13;;;12.00;50.40;;;;;;344287;28;992;-57
2023/12/14 00:15:50;;;;;;;4.30;1.20;;;12.00;50.40;;;;;;344338;28;880;-56
2023/12/14 00:16:01;;;;;;;4.80;1.30;;;12.00;50.30;;;;;;344239;28;1012;-57
2023/12/14 00:16:12;;;;;;;2.78;0.90;;;12.00;50.30;;;;;;344348;28;869;-57
2023/12/14 00:16:23;;;;;;;3.23;0.90;;;12.00;50.20;;;;;;344268;28;1071;-56
2023/12/14 00:16:33;;;;;;;3.08;0.90;;;12.00;50.20;;;;;;344266;28;1083;-56
2023/12/14 00:16:44;;;;;;;3.35;0.88;;;12.00;50.10;;;;;;344332;28;821;-57
2023/12/14 00:16:57;;;;;;;3.47;0.88;;;12.00;50.00;;;;;;344313;28;829;-56
2023/12/14 00:17:07;;;;;;;3.13;0.70;;;12.00;50.10;;;;;;344231;28;1041;-56
2023/12/14 00:17:18;;;;;;;3.28;0.73;;;12.00;50.10;;;;;;344326;28;1063;-57
2023/12/14 00:17:29;;;;;;;3.17;0.80;;;12.00;50.10;;;;;;344323;28;984;-57
2023/12/14 00:17:40;;;;;;;3.20;0.85;;;12.00;50.30;;;;;;344219;28;1028;-56
2023/12/14 00:17:50;;;;;;;2.92;0.90;;;12.00;50.50;;;;;;344286;28;945;-56
2023/12/14 00:18:01;;;;;;;2.67;0.90;;;12.00;50.40;;;;;;344272;28;1665;-57
2023/12/14 00:18:12;;;;;;;2.15;0.93;;;12.00;50.50;;;;;;344210;28;1014;-56
2023/12/14 00:18:23;;;;;;;2.55;0.90;;;12.00;50.60;;;;;;344288;28;976;-57
2023/12/14 00:18:33;;;;;;;3.05;1.00;;;12.00;50.60;;;;;;344288;28;1016;-57
2023/12/14 00:18:44;;;;;;;3.58;1.02;;;12.00;50.50;;;;;;344219;28;896;-57
2023/12/14 00:18:55;;;;;;;2.88;1.00;;;12.00;50.40;;;;;;344225;28;1103;-56
2023/12/14 00:19:06;;;;;;;2.87;1.10;;;12.00;50.30;;;;;;344348;28;1083;-56
2023/12/14 00:19:17;;;;;;;2.22;1.08;;;12.00;50.30;;;;;;344373;28;966;-57
2023/12/14 00:19:28;;;;;;;1.83;0.95;;;12.00;50.30;;;;;;344252;28;1035;-57
2023/12/14 00:19:39;;;;;;;2.57;0.90;;;12.00;50.40;;;;;;344306;28;1080;-56
2023/12/14 00:19:49;;;;;;;2.72;0.98;;;12.00;50.30;;;;;;344314;28;1055;-55
2023/12/14 00:20:00;;;;;;;2.88;1.05;;;12.00;50.30;;;;;;344302;28;957;-56
2023/12/14 00:20:11;;;;;;;2.28;0.98;;;12.00;50.20;;;;;;344199;28;981;-56
2023/12/14 00:20:22;;;;;;;2.47;1.00;;;12.00;50.30;;;;;;344357;28;861;-57
2023/12/14 00:20:33;;;;;;;3.20;1.20;;;12.00;50.30;;;;;;344266;28;1063;-56
2023/12/14 00:20:43;;;;;;;3.22;1.20;;;12.00;50.20;;;;;;344286;28;878;-56
2023/12/14 00:20:54;;;;;;;2.67;1.00;;;12.00;50.30;;;;;;344197;28;957;-56
2023/12/14 00:21:05;;;;;;;2.25;0.80;;;12.00;50.30;;;;;;344363;28;953;-57
2023/12/14 00:21:16;;;;;;;2.88;0.80;;;12.00;50.40;;;;;;344214;28;1295;-57
2023/12/14 00:21:27;;;;;;;2.88;0.90;;;12.00;50.30;;;;;;344281;28;1151;-56
2023/12/14 00:21:38;;;;;;;2.08;0.85;;;12.00;50.40;;;;;;344205;28;1078;-57
2023/12/14 00:21:48;;;;;;;2.13;0.90;;;12.00;50.60;;;;;;344321;28;1264;-56
2023/12/14 00:21:59;;;;;;;2.58;0.93;;;11.90;50.80;;;;;;344258;28;1101;-56
2023/12/14 00:22:10;;;;;;;3.13;0.97;;;12.00;50.80;;;;;;344337;28;829;-56
2023/12/14 00:22:21;;;;;;;3.20;1.00;;;12.00;50.70;;;;;;344204;28;957;-56
2023/12/14 00:22:31;;;;;;;2.72;1.00;;;11.90;50.50;;;;;;344309;28;886;-57
2023/12/14 00:22:42;;;;;;;2.70;1.05;;;12.00;50.40;;;;;;344244;28;1095;-56
2023/12/14 00:22:53;;;;;;;2.97;1.02;;;12.00;50.30;;;;;;344330;28;1039;-56
2023/12/14 00:23:04;;;;;;;2.80;1.10;;;12.00;50.20;;;;;;344201;28;1033;-56
2023/12/14 00:23:15;;;;;;;2.25;0.90;;;12.00;50.10;;;;;;344230;28;1075;-55
2023/12/14 00:23:25;;;;;;;2.47;1.08;;;12.00;50.10;;;;;;344276;28;1107;-57
2023/12/14 00:23:36;;;;;;;3.10;1.00;;;12.00;50.10;;;;;;344260;28;1107;-56
2023/12/14 00:23:47;;;;;;;2.95;0.98;;;12.00;50.20;;;;;;344175;28;1179;-56
2023/12/14 00:23:58;;;;;;;2.80;0.90;;;12.00;50.30;;;;;;344338;28;970;-57
2023/12/14 00:24:08;;;;;;;3.10;1.00;;;12.00;50.30;;;;;;344282;28;1020;-57
2023/12/14 00:24:19;;;;;;;3.47;1.05;;;12.00;50.40;;;;;;344230;28;1071;-57
2023/12/14 00:24:30;;;;;;;3.20;0.90;;;12.00;50.40;;;;;;344249;28;1012;-56
2023/12/14 00:24:41;;;;;;;2.63;0.90;;;12.00;50.30;;;;;;344216;28;2518;-56
2023/12/14 00:24:52;;;;;;;2.35;0.90;;;12.00;50.30;;;;;;344290;28;924;-56
2023/12/14 00:25:04;;;;;;;2.95;1.08;;;12.00;50.60;;;;;;344300;28;1004;-55
2023/12/14 00:25:15;;;;;;;2.67;1.02;;;12.00;50.50;;;;;;344271;28;1967;-56
2023/12/14 00:25:26;;;;;;;2.78;1.10;;;12.00;50.30;;;;;;344289;28;1032;-56
2023/12/14 00:25:36;;;;;;;2.72;1.10;;;12.00;50.20;;;;;;344196;28;955;-56
2023/12/14 00:25:47;;;;;;;2.40;1.05;;;12.00;50.20;;;;;;344227;28;1395;-57
2023/12/14 00:25:58;;;;;;;2.30;1.00;;;12.00;50.30;;;;;;344308;28;1020;-56
2023/12/14 00:26:09;;;;;;;2.33;0.90;;;12.00;50.40;;;;;;344169;28;1027;-56
2023/12/14 00:26:19;;;;;;;2.95;1.00;;;12.00;50.60;;;;;;344279;28;1000;-57
2023/12/14 00:26:30;;;;;;;2.92;0.90;;;12.00;50.60;;;;;;344323;28;837;-55
2023/12/14 00:26:41;;;;;;;3.27;0.93;;;12.00;50.50;;;;;;344220;28;1026;-56
2023/12/14 00:26:52;;;;;;;2.53;0.88;;;12.00;50.30;;;;;;344292;28;1311;-58
2023/12/14 00:27:03;;;;;;;3.28;0.90;;;12.00;50.10;;;;;;344277;28;1119;-56
2023/12/14 00:27:13;;;;;;;2.90;0.95;;;12.00;50.10;;;;;;344192;28;1025;-56
2023/12/14 00:27:24;;;;;;;3.47;1.20;;;12.00;50.20;;;;;;344289;28;992;-56
2023/12/14 00:27:35;;;;;;;2.95;1.15;;;12.00;50.30;;;;;;344288;28;922;-56
2023/12/14 00:27:45;;;;;;;2.93;1.07;;;12.00;50.30;;;;;;344169;28;1104;-56
2023/12/14 00:27:56;;;;;;;3.20;1.02;;;12.00;50.20;;;;;;344286;28;1029;-57
2023/12/14 00:28:07;;;;;;;3.90;1.10;;;12.00;50.30;;;;;;344308;28;1028;-56
2023/12/14 00:28:18;;;;;;;3.78;1.00;;;12.00;50.40;;;;;;344199;28;955;-57
2023/12/14 00:28:29;;;;;;;3.65;1.00;;;12.00;50.50;;;;;;344339;28;1040;-57
2023/12/14 00:28:40;;;;;;;3.00;0.90;;;12.00;50.40;;;;;;344250;28;1175;-56
2023/12/14 00:28:51;;;;;;;2.88;0.95;;;12.00;50.40;;;;;;344271;28;996;-57
2023/12/14 00:29:01;;;;;;;2.67;0.90;;;12.00;50.30;;;;;;344314;28;909;-57
2023/12/14 00:29:12;;;;;;;2.63;0.90;;;12.00;50.20;;;;;;344297;28;1020;-56
2023/12/14 00:29:23;;;;;;;2.03;0.75;;;12.10;50.00;;;;;;344130;28;1036;-56
2023/12/14 00:29:34;;;;;;;1.95;0.73;;;12.00;49.80;;;;;;344338;28;1040;-56
2023/12/14 00:29:45;;;;;;;2.07;0.77;;;12.00;49.90;;;;;;344309;28;980;-56
2023/12/14 00:29:56;;;;;;;2.15;0.98;;;12.00;50.10;;;;;;344165;28;912;-57
2023/12/14 00:30:07;;;;;;;2.03;1.00;;;12.00;50.10;;;;;;344343;28;834;-56
2023/12/14 00:30:18;;;;;;;2.28;0.95;;;12.00;50.10;;;;;;344308;28;1471;-57
2023/12/14 00:30:29;;;;;;;3.15;0.90;;;12.00;50.10;;;;;;344230;28;897;-56
2023/12/14 00:30:40;;;;;;;2.92;0.90;;;12.00;50.10;;;;;;344332;28;1055;-56
2023/12/14 00:30:50;;;;;;;2.53;0.90;;;12.00;50.10;;;;;;344289;28;1054;-56
2023/12/14 00:31:01;;;;;;;1.65;0.75;;;12.00;50.10;;;;;;344215;28;1050;-57
2023/12/14 00:31:12;;;;;;;2.45;0.80;;;12.00;50.10;;;;;;344264;28;973;-57
2023/12/14 00:31:23;;;;;;;2.57;0.73;;;12.00;50.00;;;;;;344311;28;1014;-57
2023/12/14 00:31:33;;;;;;;3.30;1.00;;;12.00;50.00;;;;;;344202;28;1128;-56
2023/12/14 00:31:44;;;;;;;2.95;0.95;;;12.00;50.00;;;;;;344273;28;1092;-57
2023/12/14 00:31:55;;;;;;;2.40;0.95;;;12.00;49.90;;;;;;344292;28;1245;-56
2023/12/14 00:32:06;;;;;;;1.95;0.90;;;12.00;49.90;;;;;;344226;28;1036;-56
2023/12/14 00:32:17;;;;;;;2.42;1.00;;;12.00;50.10;;;;;;344277;28;992;-56
2023/12/14 00:32:27;;;;;;;3.70;1.00;;;12.00;50.10;;;;;;344287;28;1004;-57
2023/12/14 00:32:38;;;;;;;3.13;0.90;;;12.00;50.00;;;;;;344135;28;2606;-57
2023/12/14 00:32:49;;;;;;;2.22;0.80;;;12.00;50.00;;;;;;344282;28;1789;-56
2023/12/14 00:33:00;;;;;;;2.10;0.70;;;12.00;49.90;;;;;;344220;28;1004;-55
2023/12/14 00:33:10;;;;;;;2.17;0.70;;;12.00;49.90;;;;;;344180;28;1551;-56
2023/12/14 00:33:22;;;;;;;2.63;0.82;;;12.00;49.90;;;;;;344265;28;1000;-56
2023/12/14 00:33:33;;;;;;;2.60;0.90;;;12.00;50.00;;;;;;344293;28;1047;-56
2023/12/14 00:33:44;;;;;;;2.35;1.00;;;12.00;50.10;;;;;;344170;28;940;-57
2023/12/14 00:33:55;;;;;;;1.84;0.90;;;12.00;50.30;;;;;;344304;28;2035;-56
2023/12/14 00:34:06;;;;;;;1.77;0.80;;;12.00;50.50;;;;;;344240;28;2538;-56
2023/12/14 00:34:17;;;;;;;1.88;0.82;;;12.00;50.40;;;;;;344148;28;1395;-56
2023/12/14 00:34:27;;;;;;;2.17;0.85;;;11.90;50.30;;;;;;344246;28;1004;-57
2023/12/14 00:34:38;;;;;;;2.75;1.00;;;12.00;50.10;;;;;;344189;28;1616;-57
2023/12/14 00:34:49;;;;;;;2.90;0.90;;;11.90;50.10;;;;;;344264;28;976;-56
2023/12/14 00:35:00;;;;;;;2.47;0.85;;;12.00;50.20;;;;;;344271;28;1814;-56
2023/12/14 00:35:11;;;;;;;4.30;1.00;;;12.00;50.20;;;;;;344207;28;1122;-56
2023/12/14 00:35:21;;;;;;;4.25;1.00;;;12.00;50.10;;;;;;344259;28;1260;-57
2023/12/14 00:35:32;;;;;;;3.35;0.95;;;12.00;50.20;;;;;;344224;28;1028;-57
2023/12/14 00:35:43;;;;;;;2.17;0.70;;;12.00;50.30;;;;;;344254;28;1051;-57
2023/12/14 00:35:54;;;;;;;2.75;0.75;;;12.00;50.20;;;;;;344276;28;806;-56
2023/12/14 00:36:05;;;;;;;2.27;0.80;;;12.00;50.10;;;;;;344233;28;869;-55
2023/12/14 00:36:19;;;;;;;3.17;0.93;;;12.00;50.10;;;;;;344279;28;1012;-55
2023/12/14 00:36:30;;;;;;;2.70;0.90;;;12.00;50.00;;;;;;344308;28;1047;-57
2023/12/14 00:36:40;;;;;;;2.35;0.95;;;12.00;49.90;;;;;;344243;28;949;-57
2023/12/14 00:36:51;;;;;;;2.50;1.00;;;12.00;49.80;;;;;;344293;28;1024;-56
2023/12/14 00:37:02;;;;;;;2.78;1.00;;;12.00;49.90;;;;;;344211;28;1187;-56
2023/12/14 00:37:13;;;;;;;2.42;0.90;;;12.00;49.80;;;;;;344267;28;1561;-55
2023/12/14 00:37:23;;;;;;;2.40;0.80;;;12.00;49.90;;;;;;344239;28;1025;-56
2023/12/14 00:37:34;;;;;;;2.03;0.73;;;12.00;50.00;;;;;;344235;28;1102;-56
2023/12/14 00:37:45;;;;;;;2.10;0.80;;;12.00;50.20;;;;;;344298;28;837;-56
2023/12/14 00:37:56;;;;;;;1.65;0.80;;;12.00;50.30;;;;;;344155;28;1113;-57
2023/12/14 00:38:06;;;;;;;2.60;1.10;;;12.00;50.50;;;;;;344296;28;1033;-56
2023/12/14 00:38:17;;;;;;;3.00;1.20;;;12.00;50.30;;;;;;344259;28;1068;-57
2023/12/14 00:38:28;;;;;;;3.20;1.30;;;12.00;50.30;;;;;;344259;28;1111;-56
2023/12/14 00:38:39;;;;;;;2.33;0.93;;;12.00;50.20;;;;;;344257;28;1020;-57
2023/12/14 00:38:50;;;;;;;2.15;1.00;;;11.90;50.10;;;;;;344229;28;1017;-56
2023/12/14 00:39:01;;;;;;;2.38;0.90;;;12.00;50.10;;;;;;344208;28;1108;-56
2023/12/14 00:39:12;;;;;;;2.67;1.07;;;11.90;50.00;;;;;;344252;28;1030;-57
2023/12/14 00:39:22;;;;;;;2.30;1.00;;;11.90;50.00;;;;;;344298;28;1737;-56
2023/12/14 00:39:33;;;;;;;2.08;0.98;;;11.90;50.00;;;;;;344299;28;826;-56
2023/12/14 00:39:44;;;;;;;2.35;0.93;;;11.90;50.10;;;;;;344199;28;897;-56
2023/12/14 00:39:55;;;;;;;2.22;0.85;;;12.00;50.10;;;;;;344323;28;898;-56
2023/12/14 00:40:06;;;;;;;1.77;0.88;;;11.90;50.10;;;;;;344250;28;1248;-56
2023/12/14 00:40:17;;;;;;;2.28;0.80;;;12.00;50.10;;;;;;344279;28;1122;-56
2023/12/14 00:40:28;;;;;;;2.83;0.88;;;12.00;50.20;;;;;;344202;28;965;-57
2023/12/14 00:40:38;;;;;;;2.97;0.90;;;11.90;50.10;;;;;;344301;28;874;-58
2023/12/14 00:40:49;;;;;;;2.53;0.90;;;11.90;50.10;;;;;;344264;28;965;-56
2023/12/14 00:41:00;;;;;;;2.17;0.90;;;12.00;50.30;;;;;;344209;28;1001;-57
2023/12/14 00:41:11;;;;;;;2.47;0.93;;;11.90;50.30;;;;;;344141;28;1530;-57
2023/12/14 00:41:21;;;;;;;2.53;1.00;;;11.90;50.20;;;;;;344241;28;1943;-55
2023/12/14 00:41:32;;;;;;;2.60;1.02;;;12.00;50.20;;;;;;344292;28;972;-56
2023/12/14 00:41:43;;;;;;;2.40;1.10;;;12.00;50.20;;;;;;344292;28;1012;-57
2023/12/14 00:41:54;;;;;;;1.93;0.90;;;12.00;50.10;;;;;;344106;28;1028;-57
2023/12/14 00:42:05;;;;;;;2.30;0.88;;;11.90;50.00;;;;;;344246;28;832;-56
2023/12/14 00:42:16;;;;;;;2.28;0.80;;;11.90;50.00;;;;;;344305;28;865;-56
2023/12/14 00:42:26;;;;;;;3.53;1.10;;;11.90;50.00;;;;;;344250;28;1047;-57
2023/12/14 00:42:37;;;;;;;3.95;1.13;;;12.00;49.90;;;;;;344196;28;1072;-56
2023/12/14 00:42:48;;;;;;;4.22;1.10;;;12.00;49.80;;;;;;344280;28;1020;-57
2023/12/14 00:42:59;;;;;;;2.88;0.90;;;11.90;49.80;;;;;;344297;28;916;-57
2023/12/14 00:43:09;;;;;;;3.47;0.90;;;12.00;49.80;;;;;;344210;28;1063;-56
2023/12/14 00:43:20;;;;;;;3.22;1.10;;;12.00;49.80;;;;;;344207;28;912;-55
2023/12/14 00:43:31;;;;;;;3.20;1.05;;;11.90;49.80;;;;;;344218;28;1080;-56
2023/12/14 00:43:42;;;;;;;2.40;0.98;;;11.90;49.90;;;;;;344251;28;1221;-56
2023/12/14 00:43:52;;;;;;;2.33;0.80;;;11.90;49.90;;;;;;344306;28;937;-58
2023/12/14 00:44:03;;;;;;;2.33;0.90;;;11.90;49.90;;;;;;344203;28;1090;-56
2023/12/14 00:44:14;;;;;;;2.25;0.98;;;11.90;50.00;;;;;;344225;28;1009;-56
2023/12/14 00:44:25;;;;;;;2.30;1.05;;;11.90;50.00;;;;;;344265;28;984;-57
2023/12/14 00:44:36;;;;;;;2.00;0.90;;;11.90;50.00;;;;;;344267;28;841;-56
2023/12/14 00:44:46;;;;;;;1.92;0.80;;;11.90;50.10;;;;;;344115;28;1187;-56
2023/12/14 00:44:57;;;;;;;1.63;0.70;;;11.90;50.00;;;;;;344221;28;1118;-57
2023/12/14 00:45:08;;;;;;;2.80;0.80;;;11.90;50.00;;;;;;344214;28;1056;-56
2023/12/14 00:45:19;;;;;;;3.53;0.88;;;11.90;50.00;;;;;;344099;28;1916;-57
2023/12/14 00:45:30;;;;;;;4.25;1.00;;;11.90;50.00;;;;;;344243;28;1060;-56
2023/12/14 00:45:44;;;;;;;3.07;1.00;;;11.90;50.10;;;;;;344252;28;1020;-57
2023/12/14 00:45:54;;;;;;;2.20;0.90;;;11.90;50.20;;;;;;344169;28;1030;-57
2023/12/14 00:46:05;;;;;;;2.53;0.90;;;11.90;50.10;;;;;;344278;28;1015;-56
2023/12/14 00:46:16;;;;;;;3.30;0.95;;;11.90;50.20;;;;;;344277;28;1019;-56
2023/12/14 00:46:27;;;;;;;3.60;0.90;;;11.90;50.10;;;;;;344286;28;1013;-56
2023/12/14 00:46:37;;;;;;;2.80;0.90;;;11.90;50.10;;;;;;344188;28;1601;-57
2023/12/14 00:46:48;;;;;;;2.17;0.80;;;11.90;50.10;;;;;;344329;28;826;-57
2023/12/14 00:47:00;;;;;;;1.92;0.95;;;11.90;50.10;;;;;;344214;28;1088;-56
2023/12/14 00:47:10;;;;;;;2.00;0.90;;;11.90;50.00;;;;;;344179;28;1072;-56
2023/12/14 00:47:21;;;;;;;2.17;0.90;;;11.90;50.00;;;;;;344243;28;1021;-58
2023/12/14 00:47:32;;;;;;;2.13;0.85;;;11.90;50.00;;;;;;344262;28;928;-57
2023/12/14 00:47:43;;;;;;;2.35;0.90;;;11.90;50.00;;;;;;344175;28;1099;-56
2023/12/14 00:47:53;;;;;;;2.35;0.90;;;11.90;50.00;;;;;;344251;28;818;-57
2023/12/14 00:48:04;;;;;;;2.67;0.90;;;11.90;50.10;;;;;;344241;28;1884;-56
2023/12/14 00:48:15;;;;;;;3.00;0.93;;;11.90;50.10;;;;;;344151;28;1036;-56
2023/12/14 00:48:26;;;;;;;3.05;0.98;;;11.90;50.10;;;;;;344297;28;1087;-57
2023/12/14 00:48:37;;;;;;;2.65;1.00;;;11.90;50.10;;;;;;344287;28;976;-56
2023/12/14 00:48:47;;;;;;;2.25;0.90;;;11.90;50.00;;;;;;344283;28;1048;-56
2023/12/14 00:48:58;;;;;;;2.45;1.00;;;11.90;50.10;;;;;;344155;28;1021;-58
2023/12/14 00:49:09;;;;;;;2.38;0.90;;;11.90;50.10;;;;;;344224;28;1112;-57
2023/12/14 00:49:20;;;;;;;3.37;1.10;;;11.90;50.20;;;;;;344220;28;948;-57
2023/12/14 00:49:30;;;;;;;3.38;1.08;;;11.90;50.30;;;;;;344223;28;1020;-56
2023/12/14 00:49:41;;;;;;;3.40;1.00;;;11.90;50.40;;;;;;344190;28;1024;-58
2023/12/14 00:49:52;;;;;;;3.22;1.00;;;11.90;50.40;;;;;;344277;28;1110;-56
2023/12/14 00:50:03;;;;;;;3.28;1.10;;;11.90;50.40;;;;;;344171;28;1110;-58
2023/12/14 00:50:14;;;;;;;3.30;1.08;;;11.80;50.50;;;;;;344274;28;893;-57
2023/12/14 00:50:25;;;;;;;2.65;0.85;;;11.80;50.50;;;;;;344199;28;1407;-57
2023/12/14 00:50:36;;;;;;;2.23;0.80;;;11.80;50.40;;;;;;344177;28;1099;-57
2023/12/14 00:50:46;;;;;;;2.30;0.90;;;11.80;50.30;;;;;;344197;28;1096;-57
2023/12/14 00:50:57;;;;;;;2.30;0.95;;;11.90;50.30;;;;;;344214;28;969;-57
2023/12/14 00:51:08;;;;;;;2.67;1.05;;;11.80;50.40;;;;;;344149;28;931;-57
2023/12/14 00:51:19;;;;;;;2.45;1.00;;;11.80;50.40;;;;;;344295;28;947;-57
2023/12/14 00:51:29;;;;;;;2.05;0.95;;;11.80;50.40;;;;;;344243;28;1816;-60
2023/12/14 00:51:40;;;;;;;2.57;1.00;;;11.90;50.40;;;;;;344086;28;1020;-58
2023/12/14 00:51:51;;;;;;;3.22;1.13;;;11.90;50.40;;;;;;344286;28;1086;-56
2023/12/14 00:52:02;;;;;;;4.13;1.15;;;11.80;50.30;;;;;;344265;28;1051;-57
2023/12/14 00:52:12;;;;;;;4.05;1.02;;;11.90;50.40;;;;;;344189;28;1077;-55
2023/12/14 00:52:23;;;;;;;3.53;0.90;;;11.90;50.40;;;;;;344336;28;853;-57
2023/12/14 00:52:34;;;;;;;2.70;0.90;;;11.80;50.40;;;;;;344339;28;911;-57
2023/12/14 00:52:45;;;;;;;2.92;1.00;;;11.80;50.40;;;;;;344162;28;1174;-56
2023/12/14 00:52:56;;;;;;;3.10;1.00;;;11.80;50.40;;;;;;344224;28;1853;-56
2023/12/14 00:53:06;;;;;;;3.00;0.90;;;11.80;50.30;;;;;;344289;28;1032;-56
2023/12/14 00:53:17;;;;;;;2.83;1.10;;;11.80;50.40;;;;;;344106;28;1028;-56
2023/12/14 00:53:28;;;;;;;3.53;1.35;;;11.90;50.40;;;;;;344248;28;1805;-56
2023/12/14 00:53:39;;;;;;;3.73;1.23;;;11.80;50.40;;;;;;344286;28;1015;-57
2023/12/14 00:53:49;;;;;;;3.42;1.02;;;11.80;50.30;;;;;;344210;28;908;-56
2023/12/14 00:54:00;;;;;;;3.03;0.90;;;11.80;50.40;;;;;;344269;28;900;-57
2023/12/14 00:54:11;;;;;;;2.60;0.90;;;11.80;50.40;;;;;;344199;28;1128;-57
2023/12/14 00:54:22;;;;;;;2.63;1.00;;;11.80;50.30;;;;;;344137;28;2145;-57
2023/12/14 00:54:32;;;;;;;2.40;1.10;;;11.80;50.30;;;;;;344226;28;1036;-57
2023/12/14 00:54:43;;;;;;;2.55;1.20;;;11.80;50.30;;;;;;344111;28;1001;-57
2023/12/14 00:54:54;;;;;;;2.75;1.10;;;11.80;50.30;;;;;;344343;28;965;-57
2023/12/14 00:55:05;;;;;;;2.50;1.02;;;11.80;50.30;;;;;;344146;28;1143;-57
2023/12/14 00:55:16;;;;;;;2.47;1.10;;;11.80;50.30;;;;;;344210;28;1684;-56
2023/12/14 00:55:27;;;;;;;2.10;1.08;;;11.80;50.40;;;;;;344182;28;1040;-57
2023/12/14 00:55:37;;;;;;;1.80;0.90;;;11.80;50.60;;;;;;344275;28;969;-56
2023/12/14 00:55:48;;;;;;;2.80;0.95;;;11.80;50.50;;;;;;344114;28;1247;-57
2023/12/14 00:55:59;;;;;;;3.80;0.90;;;11.80;50.50;;;;;;344236;28;1103;-57
2023/12/14 00:56:10;;;;;;;4.28;1.02;;;11.80;50.50;;;;;;344229;28;976;-57
2023/12/14 00:56:20;;;;;;;2.83;1.00;;;11.80;50.50;;;;;;344270;28;864;-57
2023/12/14 00:56:31;;;;;;;2.05;1.05;;;11.80;50.50;;;;;;344164;28;1028;-57
2023/12/14 00:56:42;;;;;;;2.50;1.00;;;11.80;50.50;;;;;;344241;28;1111;-57
2023/12/14 00:56:53;;;;;;;3.00;1.00;;;11.80;50.50;;;;;;344204;28;865;-56
2023/12/14 00:57:04;;;;;;;3.28;1.08;;;11.80;50.50;;;;;;344258;28;888;-56
2023/12/14 00:57:14;;;;;;;3.05;1.00;;;11.80;50.40;;;;;;344165;28;953;-56
2023/12/14 00:57:25;;;;;;;3.42;0.90;;;11.70;50.40;;;;;;344247;28;1096;-56
2023/12/14 00:57:36;;;;;;;3.97;0.90;;;11.80;50.50;;;;;;344154;28;1016;-56
2023/12/14 00:57:47;;;;;;;3.50;1.00;;;11.80;50.50;;;;;;343986;28;1194;-57
2023/12/14 00:57:57;;;;;;;3.22;1.10;;;11.80;50.50;;;;;;344049;28;1076;-56
2023/12/14 00:58:08;;;;;;;2.70;1.13;;;11.80;50.50;;;;;;344127;28;1020;-57
2023/12/14 00:58:19;;;;;;;4.40;1.25;;;11.80;50.60;;;;;;344169;28;1170;-57